sensor_id;sensor_type;location;lat;lon;timestamp;pressure;altitude;pressure_sealevel;temperature;humidity
47280;BME280;34064;44.942;0.008;2022-07-06T00:01:01;99306.75;;;21.84;48.66
47280;BME280;34064;44.942;0.008;2022-07-06T00:03:27;99307.94;;;21.81;48.37
47280;BME280;34064;44.942;0.008;2022-07-06T00:05:54;99309.31;;;21.77;48.52
47280;BME280;34064;44.942;0.008;2022-07-06T00:08:20;99306.31;;;21.72;48.55
47280;BME280;34064;44.942;0.008;2022-07-06T00:10:46;99306.34;;;21.64;48.67
47280;BME280;34064;44.942;0.008;2022-07-06T00:13:13;99306.03;;;21.59;48.80
47280;BME280;34064;44.942;0.008;2022-07-06T00:15:39;99302.31;;;21.51;48.85
47280;BME280;34064;44.942;0.008;2022-07-06T00:18:05;99307.06;;;21.49;48.74
47280;BME280;34064;44.942;0.008;2022-07-06T00:20:32;99299.66;;;21.43;48.65
47280;BME280;34064;44.942;0.008;2022-07-06T00:22:58;99320.31;;;21.36;48.64
47280;BME280;34064;44.942;0.008;2022-07-06T00:25:24;99326.75;;;21.27;48.87
47280;BME280;34064;44.942;0.008;2022-07-06T00:27:51;99325.78;;;21.19;48.88
47280;BME280;34064;44.942;0.008;2022-07-06T00:30:17;99328.13;;;21.14;49.05
47280;BME280;34064;44.942;0.008;2022-07-06T00:32:44;99317.53;;;21.13;49.05
47280;BME280;34064;44.942;0.008;2022-07-06T00:35:10;99330.53;;;21.09;49.17
47280;BME280;34064;44.942;0.008;2022-07-06T00:37:36;99329.19;;;21.05;49.41
47280;BME280;34064;44.942;0.008;2022-07-06T00:40:03;99323.47;;;21.00;49.41
47280;BME280;34064;44.942;0.008;2022-07-06T00:42:29;99324.63;;;20.97;49.57
47280;BME280;34064;44.942;0.008;2022-07-06T00:44:56;99317.38;;;20.98;49.64
47280;BME280;34064;44.942;0.008;2022-07-06T00:47:22;99314.88;;;20.96;49.65
47280;BME280;34064;44.942;0.008;2022-07-06T00:49:49;99314.69;;;20.98;49.61
47280;BME280;34064;44.942;0.008;2022-07-06T00:52:34;99312.00;;;20.98;49.93
47280;BME280;34064;44.942;0.008;2022-07-06T00:55:00;99304.56;;;21.00;49.80
47280;BME280;34064;44.942;0.008;2022-07-06T00:57:28;99307.91;;;21.02;49.81
47280;BME280;34064;44.942;0.008;2022-07-06T00:59:55;99304.19;;;21.03;49.85
47280;BME280;34064;44.942;0.008;2022-07-06T01:02:22;99307.91;;;21.02;50.14
47280;BME280;34064;44.942;0.008;2022-07-06T01:04:48;99309.59;;;21.03;50.28
47280;BME280;34064;44.942;0.008;2022-07-06T01:07:15;99306.06;;;21.02;50.36
47280;BME280;34064;44.942;0.008;2022-07-06T01:09:42;99311.28;;;21.04;50.37
47280;BME280;34064;44.942;0.008;2022-07-06T01:12:08;99312.97;;;21.05;50.70
47280;BME280;34064;44.942;0.008;2022-07-06T01:14:35;99308.25;;;21.07;50.42
47280;BME280;34064;44.942;0.008;2022-07-06T01:17:03;99300.63;;;21.11;50.55
47280;BME280;34064;44.942;0.008;2022-07-06T01:19:29;99304.00;;;21.13;50.49
47280;BME280;34064;44.942;0.008;2022-07-06T01:21:56;99303.16;;;21.12;50.59
47280;BME280;34064;44.942;0.008;2022-07-06T01:24:22;99298.44;;;21.14;50.31
47280;BME280;34064;44.942;0.008;2022-07-06T01:26:48;99295.38;;;21.17;50.34
47280;BME280;34064;44.942;0.008;2022-07-06T01:29:15;99307.22;;;21.16;50.64
47280;BME280;34064;44.942;0.008;2022-07-06T01:31:49;99298.75;;;21.19;50.64
47280;BME280;34064;44.942;0.008;2022-07-06T01:34:19;99301.63;;;21.18;50.63
47280;BME280;34064;44.942;0.008;2022-07-06T01:36:46;99304.84;;;21.13;50.68
47280;BME280;34064;44.942;0.008;2022-07-06T01:39:12;99297.75;;;21.12;50.77
47280;BME280;34064;44.942;0.008;2022-07-06T01:41:39;99295.72;;;21.14;50.72
47280;BME280;34064;44.942;0.008;2022-07-06T01:44:06;99293.38;;;21.19;50.41
47280;BME280;34064;44.942;0.008;2022-07-06T01:46:32;99291.31;;;21.22;50.61
47280;BME280;34064;44.942;0.008;2022-07-06T01:48:59;99286.94;;;21.21;50.65
47280;BME280;34064;44.942;0.008;2022-07-06T01:51:25;99277.78;;;21.22;50.61
47280;BME280;34064;44.942;0.008;2022-07-06T01:53:52;99284.25;;;21.21;50.49
47280;BME280;34064;44.942;0.008;2022-07-06T01:56:19;99277.16;;;21.19;50.33
47280;BME280;34064;44.942;0.008;2022-07-06T01:58:46;99273.44;;;21.21;50.49
47280;BME280;34064;44.942;0.008;2022-07-06T02:01:15;99278.16;;;21.18;50.54
47280;BME280;34064;44.942;0.008;2022-07-06T02:03:42;99277.50;;;21.16;50.55
47280;BME280;34064;44.942;0.008;2022-07-06T02:06:09;99273.44;;;21.12;50.50
47280;BME280;34064;44.942;0.008;2022-07-06T02:08:37;99278.84;;;21.12;50.50
47280;BME280;34064;44.942;0.008;2022-07-06T02:11:07;99278.19;;;21.10;50.46
47280;BME280;34064;44.942;0.008;2022-07-06T02:13:36;99273.81;;;21.09;50.35
47280;BME280;34064;44.942;0.008;2022-07-06T02:16:05;99277.34;;;21.10;50.54
47280;BME280;34064;44.942;0.008;2022-07-06T02:18:34;99270.09;;;21.10;50.40
47280;BME280;34064;44.942;0.008;2022-07-06T02:21:06;99267.75;;;21.07;50.50
47280;BME280;34064;44.942;0.008;2022-07-06T02:23:35;99268.41;;;21.09;50.38
47280;BME280;34064;44.942;0.008;2022-07-06T02:26:02;99269.44;;;21.08;50.39
47280;BME280;34064;44.942;0.008;2022-07-06T02:28:30;99260.94;;;21.11;50.09
47280;BME280;34064;44.942;0.008;2022-07-06T02:30:56;99265.34;;;21.12;50.11
47280;BME280;34064;44.942;0.008;2022-07-06T02:33:24;99257.59;;;21.09;50.27
47280;BME280;34064;44.942;0.008;2022-07-06T02:35:51;99256.22;;;21.13;49.99
47280;BME280;34064;44.942;0.008;2022-07-06T02:38:18;99247.44;;;21.11;49.72
47280;BME280;34064;44.942;0.008;2022-07-06T02:40:44;99247.44;;;21.11;49.68
47280;BME280;34064;44.942;0.008;2022-07-06T02:43:11;99258.25;;;21.11;49.90
47280;BME280;34064;44.942;0.008;2022-07-06T02:45:37;99261.31;;;21.08;49.72
47280;BME280;34064;44.942;0.008;2022-07-06T02:48:03;99268.56;;;21.08;49.71
47280;BME280;34064;44.942;0.008;2022-07-06T02:50:30;99265.03;;;21.07;49.75
47280;BME280;34064;44.942;0.008;2022-07-06T02:52:56;99260.31;;;21.09;49.63
47280;BME280;34064;44.942;0.008;2022-07-06T02:55:24;99255.56;;;21.11;49.21
47280;BME280;34064;44.942;0.008;2022-07-06T02:57:51;99253.22;;;21.08;49.26
47280;BME280;34064;44.942;0.008;2022-07-06T03:00:17;99254.53;;;21.12;49.22
47280;BME280;34064;44.942;0.008;2022-07-06T03:02:44;99259.28;;;21.10;49.17
47280;BME280;34064;44.942;0.008;2022-07-06T03:05:10;99247.44;;;21.11;49.19
47280;BME280;34064;44.942;0.008;2022-07-06T03:07:36;99244.59;;;21.13;49.07
47280;BME280;34064;44.942;0.008;2022-07-06T03:10:03;99241.22;;;21.11;48.96
47280;BME280;34064;44.942;0.008;2022-07-06T03:12:30;99252.84;;;21.11;49.01
47280;BME280;34064;44.942;0.008;2022-07-06T03:14:56;99241.56;;;21.08;49.05
47280;BME280;34064;44.942;0.008;2022-07-06T03:17:25;99244.75;;;21.11;48.87
47280;BME280;34064;44.942;0.008;2022-07-06T03:19:54;99250.19;;;21.03;49.13
47280;BME280;34064;44.942;0.008;2022-07-06T03:22:21;99254.75;;;21.02;49.11
47280;BME280;34064;44.942;0.008;2022-07-06T03:24:48;99243.47;;;20.99;49.25
47280;BME280;34064;44.942;0.008;2022-07-06T03:27:15;99247.19;;;20.98;49.37
47280;BME280;34064;44.942;0.008;2022-07-06T03:29:42;99242.13;;;20.95;49.30
47280;BME280;34064;44.942;0.008;2022-07-06T03:32:08;99247.03;;;20.91;49.34
47280;BME280;34064;44.942;0.008;2022-07-06T03:34:34;99241.97;;;20.88;49.36
47280;BME280;34064;44.942;0.008;2022-07-06T03:37:01;99244.84;;;20.86;49.38
47280;BME280;34064;44.942;0.008;2022-07-06T03:39:27;99249.56;;;20.84;49.38
47280;BME280;34064;44.942;0.008;2022-07-06T03:41:54;99244.03;;;20.86;49.31
47280;BME280;34064;44.942;0.008;2022-07-06T03:44:20;99248.06;;;20.82;49.15
47280;BME280;34064;44.942;0.008;2022-07-06T03:46:46;99257.38;;;20.79;49.46
47280;BME280;34064;44.942;0.008;2022-07-06T03:49:13;99263.78;;;20.78;49.40
47280;BME280;34064;44.942;0.008;2022-07-06T03:51:39;99251.47;;;20.76;49.17
47280;BME280;34064;44.942;0.008;2022-07-06T03:54:06;99255.34;;;20.73;49.30
47280;BME280;34064;44.942;0.008;2022-07-06T03:56:32;99261.06;;;20.70;49.43
47280;BME280;34064;44.942;0.008;2022-07-06T03:59:01;99261.41;;;20.67;49.55
47280;BME280;34064;44.942;0.008;2022-07-06T04:01:28;99259.91;;;20.64;49.44
47280;BME280;34064;44.942;0.008;2022-07-06T04:03:55;99256.69;;;20.61;49.43
47280;BME280;34064;44.942;0.008;2022-07-06T04:06:22;99261.22;;;20.60;49.42
47280;BME280;34064;44.942;0.008;2022-07-06T04:08:49;99267.69;;;20.59;49.54
47280;BME280;34064;44.942;0.008;2022-07-06T04:11:16;99264.13;;;20.58;49.39
47280;BME280;34064;44.942;0.008;2022-07-06T04:13:42;99267.81;;;20.57;49.57
47280;BME280;34064;44.942;0.008;2022-07-06T04:16:09;99267.50;;;20.52;49.81
47280;BME280;34064;44.942;0.008;2022-07-06T04:18:35;99272.72;;;20.54;49.62
47280;BME280;34064;44.942;0.008;2022-07-06T04:21:01;99280.00;;;20.53;49.58
47280;BME280;34064;44.942;0.008;2022-07-06T04:23:28;99275.94;;;20.49;49.50
47280;BME280;34064;44.942;0.008;2022-07-06T04:25:54;99275.25;;;20.47;49.75
47280;BME280;34064;44.942;0.008;2022-07-06T04:28:21;99270.88;;;20.46;49.78
47280;BME280;34064;44.942;0.008;2022-07-06T04:30:47;99268.16;;;20.46;49.74
47280;BME280;34064;44.942;0.008;2022-07-06T04:33:14;99272.25;;;20.42;49.81
47280;BME280;34064;44.942;0.008;2022-07-06T04:35:40;99289.44;;;20.41;50.02
47280;BME280;34064;44.942;0.008;2022-07-06T04:38:07;99280.66;;;20.39;50.12
47280;BME280;34064;44.942;0.008;2022-07-06T04:40:33;99283.03;;;20.34;50.17
47280;BME280;34064;44.942;0.008;2022-07-06T04:43:00;99281.16;;;20.34;50.06
47280;BME280;34064;44.942;0.008;2022-07-06T04:45:26;99274.28;;;20.32;50.13
47280;BME280;34064;44.942;0.008;2022-07-06T04:47:53;99270.88;;;20.30;50.06
47280;BME280;34064;44.942;0.008;2022-07-06T04:50:19;99271.06;;;20.28;50.22
47280;BME280;34064;44.942;0.008;2022-07-06T04:52:45;99276.78;;;20.25;50.29
47280;BME280;34064;44.942;0.008;2022-07-06T04:55:12;99282.00;;;20.26;50.23
47280;BME280;34064;44.942;0.008;2022-07-06T04:57:40;99281.19;;;20.26;50.10
47280;BME280;34064;44.942;0.008;2022-07-06T05:00:07;99285.06;;;20.23;50.21
47280;BME280;34064;44.942;0.008;2022-07-06T05:02:34;99276.78;;;20.25;50.37
47280;BME280;34064;44.942;0.008;2022-07-06T05:05:00;99290.78;;;20.29;50.28
47280;BME280;34064;44.942;0.008;2022-07-06T05:07:27;99290.44;;;20.32;50.17
47280;BME280;34064;44.942;0.008;2022-07-06T05:09:55;99291.28;;;20.32;50.13
47280;BME280;34064;44.942;0.008;2022-07-06T05:12:21;99286.38;;;20.36;50.09
47280;BME280;34064;44.942;0.008;2022-07-06T05:14:48;99282.69;;;20.37;50.15
47280;BME280;34064;44.942;0.008;2022-07-06T05:17:14;99279.66;;;20.40;50.06
47280;BME280;34064;44.942;0.008;2022-07-06T05:19:40;99287.41;;;20.43;50.08
47280;BME280;34064;44.942;0.008;2022-07-06T05:22:07;99279.97;;;20.45;49.98
47280;BME280;34064;44.942;0.008;2022-07-06T05:24:33;99281.34;;;20.49;49.83
47280;BME280;34064;44.942;0.008;2022-07-06T05:26:59;99278.44;;;20.51;50.09
47280;BME280;34064;44.942;0.008;2022-07-06T05:29:26;99270.53;;;20.57;49.89
47280;BME280;34064;44.942;0.008;2022-07-06T05:31:52;99271.03;;;20.61;49.93
47280;BME280;34064;44.942;0.008;2022-07-06T05:34:18;99268.81;;;20.65;49.60
47280;BME280;34064;44.942;0.008;2022-07-06T05:36:44;99264.09;;;20.67;49.48
47280;BME280;34064;44.942;0.008;2022-07-06T05:39:11;99259.88;;;20.72;49.53
47280;BME280;34064;44.942;0.008;2022-07-06T05:41:38;99262.41;;;20.74;49.49
47280;BME280;34064;44.942;0.008;2022-07-06T05:44:04;99261.75;;;20.80;49.50
47280;BME280;34064;44.942;0.008;2022-07-06T05:46:30;99272.19;;;20.83;49.49
47280;BME280;34064;44.942;0.008;2022-07-06T05:48:57;99268.13;;;20.87;49.39
47280;BME280;34064;44.942;0.008;2022-07-06T05:51:41;99263.72;;;20.95;49.56
47280;BME280;34064;44.942;0.008;2022-07-06T05:54:10;99271.66;;;20.96;49.37
47280;BME280;34064;44.942;0.008;2022-07-06T05:56:39;99275.88;;;20.99;49.30
47280;BME280;34064;44.942;0.008;2022-07-06T05:59:07;99275.50;;;21.02;49.39
47280;BME280;34064;44.942;0.008;2022-07-06T06:01:34;99280.22;;;21.08;49.26
47280;BME280;34064;44.942;0.008;2022-07-06T06:04:02;99278.69;;;21.14;49.06
47280;BME280;34064;44.942;0.008;2022-07-06T06:06:31;99272.59;;;21.20;49.34
47280;BME280;34064;44.942;0.008;2022-07-06T06:09:00;99274.09;;;21.23;49.09
47280;BME280;34064;44.942;0.008;2022-07-06T06:11:28;99267.31;;;21.27;48.93
47280;BME280;34064;44.942;0.008;2022-07-06T06:13:54;99268.47;;;21.32;49.21
47280;BME280;34064;44.942;0.008;2022-07-06T06:16:21;99273.00;;;21.40;48.92
47280;BME280;34064;44.942;0.008;2022-07-06T06:18:49;99265.69;;;21.49;48.82
47280;BME280;34064;44.942;0.008;2022-07-06T06:21:18;99274.97;;;21.55;48.60
47280;BME280;34064;44.942;0.008;2022-07-06T06:23:45;99268.88;;;21.61;48.67
47280;BME280;34064;44.942;0.008;2022-07-06T06:26:11;99273.06;;;21.63;48.77
47280;BME280;34064;44.942;0.008;2022-07-06T06:28:37;99270.63;;;21.77;48.64
47280;BME280;34064;44.942;0.008;2022-07-06T06:31:06;99268.06;;;21.84;48.48
47280;BME280;34064;44.942;0.008;2022-07-06T06:33:35;99271.03;;;21.89;48.13
47280;BME280;34064;44.942;0.008;2022-07-06T06:36:05;99269.97;;;21.98;48.10
47280;BME280;34064;44.942;0.008;2022-07-06T06:38:35;99277.53;;;22.03;47.82
47280;BME280;34064;44.942;0.008;2022-07-06T06:41:08;99285.13;;;22.07;47.58
47280;BME280;34064;44.942;0.008;2022-07-06T06:43:43;99292.16;;;22.17;47.85
47280;BME280;34064;44.942;0.008;2022-07-06T06:46:25;99295.44;;;22.27;47.81
47280;BME280;34064;44.942;0.008;2022-07-06T06:49:09;99299.78;;;22.36;47.31
47280;BME280;34064;44.942;0.008;2022-07-06T06:51:56;99305.34;;;22.43;47.49
47280;BME280;34064;44.942;0.008;2022-07-06T06:54:41;99315.06;;;22.52;47.39
47280;BME280;34064;44.942;0.008;2022-07-06T06:57:22;99314.31;;;22.58;47.13
47280;BME280;34064;44.942;0.008;2022-07-06T06:59:56;99308.66;;;22.68;47.27
47280;BME280;34064;44.942;0.008;2022-07-06T07:02:37;99307.34;;;22.79;46.66
47280;BME280;34064;44.942;0.008;2022-07-06T07:05:11;99301.84;;;22.87;46.69
47280;BME280;34064;44.942;0.008;2022-07-06T07:07:38;99300.28;;;22.93;46.54
47280;BME280;34064;44.942;0.008;2022-07-06T07:10:05;99290.38;;;23.00;46.49
47280;BME280;34064;44.942;0.008;2022-07-06T07:12:43;99286.84;;;23.15;46.00
47280;BME280;34064;44.942;0.008;2022-07-06T07:15:10;99267.78;;;23.23;46.15
47280;BME280;34064;44.942;0.008;2022-07-06T07:17:39;99262.09;;;23.33;45.85
47280;BME280;34064;44.942;0.008;2022-07-06T07:20:09;99263.47;;;23.44;45.48
47280;BME280;34064;44.942;0.008;2022-07-06T07:22:37;99266.88;;;23.52;45.35
47280;BME280;34064;44.942;0.008;2022-07-06T07:25:04;99274.75;;;23.62;45.17
47280;BME280;34064;44.942;0.008;2022-07-06T07:27:30;99278.56;;;23.68;45.36
47280;BME280;34064;44.942;0.008;2022-07-06T07:29:57;99270.97;;;23.78;45.31
47280;BME280;34064;44.942;0.008;2022-07-06T07:32:24;99278.09;;;23.86;45.06
47280;BME280;34064;44.942;0.008;2022-07-06T07:34:50;99280.34;;;23.97;45.15
47280;BME280;34064;44.942;0.008;2022-07-06T07:37:16;99270.28;;;24.13;44.93
47280;BME280;34064;44.942;0.008;2022-07-06T07:39:43;99264.06;;;24.19;44.89
47280;BME280;34064;44.942;0.008;2022-07-06T07:42:09;99250.16;;;24.29;44.33
47280;BME280;34064;44.942;0.008;2022-07-06T07:44:36;99242.72;;;24.38;44.50
47280;BME280;34064;44.942;0.008;2022-07-06T07:47:02;99238.81;;;24.47;44.54
47280;BME280;34064;44.942;0.008;2022-07-06T07:49:28;99228.06;;;24.60;43.89
47280;BME280;34064;44.942;0.008;2022-07-06T07:51:57;99225.84;;;24.71;43.70
47280;BME280;34064;44.942;0.008;2022-07-06T07:54:24;99224.63;;;24.80;43.02
47280;BME280;34064;44.942;0.008;2022-07-06T07:56:52;99217.63;;;24.92;43.02
47280;BME280;34064;44.942;0.008;2022-07-06T07:59:20;99215.16;;;24.98;43.33
47280;BME280;34064;44.942;0.008;2022-07-06T08:01:46;99214.78;;;25.14;42.42
47280;BME280;34064;44.942;0.008;2022-07-06T08:04:13;99208.34;;;25.22;42.57
47280;BME280;34064;44.942;0.008;2022-07-06T08:06:39;99202.72;;;25.30;42.36
47280;BME280;34064;44.942;0.008;2022-07-06T08:09:07;99205.50;;;25.44;42.17
47280;BME280;34064;44.942;0.008;2022-07-06T08:11:36;99191.53;;;25.60;41.63
47280;BME280;34064;44.942;0.008;2022-07-06T08:14:03;99186.75;;;25.69;42.21
47280;BME280;34064;44.942;0.008;2022-07-06T08:16:31;99181.94;;;25.84;42.12
47280;BME280;34064;44.942;0.008;2022-07-06T08:18:59;99187.81;;;25.95;41.62
47280;BME280;34064;44.942;0.008;2022-07-06T08:21:26;99189.91;;;26.06;41.49
47280;BME280;34064;44.942;0.008;2022-07-06T08:23:53;99190.34;;;26.23;40.76
47280;BME280;34064;44.942;0.008;2022-07-06T08:26:20;99189.28;;;26.31;40.89
47280;BME280;34064;44.942;0.008;2022-07-06T08:28:47;99189.69;;;26.41;40.67
47280;BME280;34064;44.942;0.008;2022-07-06T08:31:14;99194.50;;;26.53;40.60
47280;BME280;34064;44.942;0.008;2022-07-06T08:33:40;99186.72;;;26.63;40.49
47280;BME280;34064;44.942;0.008;2022-07-06T08:36:06;99196.34;;;26.72;39.73
47280;BME280;34064;44.942;0.008;2022-07-06T08:38:33;99184.84;;;26.77;39.46
47280;BME280;34064;44.942;0.008;2022-07-06T08:40:59;99190.69;;;26.81;39.55
47280;BME280;34064;44.942;0.008;2022-07-06T08:43:26;99194.84;;;26.90;39.36
47280;BME280;34064;44.942;0.008;2022-07-06T08:45:54;99189.78;;;27.00;39.62
47280;BME280;34064;44.942;0.008;2022-07-06T08:48:22;99185.09;;;27.21;38.92
47280;BME280;34064;44.942;0.008;2022-07-06T08:50:49;99183.78;;;27.30;38.58
47280;BME280;34064;44.942;0.008;2022-07-06T08:53:17;99183.28;;;27.40;38.38
47280;BME280;34064;44.942;0.008;2022-07-06T08:55:44;99178.03;;;27.52;38.38
47280;BME280;34064;44.942;0.008;2022-07-06T08:58:11;99188.22;;;27.63;38.11
47280;BME280;34064;44.942;0.008;2022-07-06T09:00:38;99180.81;;;27.77;37.54
47280;BME280;34064;44.942;0.008;2022-07-06T09:03:05;99183.06;;;27.80;38.17
47280;BME280;34064;44.942;0.008;2022-07-06T09:05:33;99173.94;;;27.93;37.25
47280;BME280;34064;44.942;0.008;2022-07-06T09:08:01;99171.41;;;27.98;37.16
47280;BME280;34064;44.942;0.008;2022-07-06T09:10:28;99175.56;;;28.08;37.28
47280;BME280;34064;44.942;0.008;2022-07-06T09:13:02;99162.56;;;28.28;36.65
47280;BME280;34064;44.942;0.008;2022-07-06T09:15:30;99166.69;;;28.38;36.64
47280;BME280;34064;44.942;0.008;2022-07-06T09:17:57;99159.75;;;28.54;35.87
47280;BME280;34064;44.942;0.008;2022-07-06T09:20:26;99168.19;;;28.52;35.99
47280;BME280;34064;44.942;0.008;2022-07-06T09:22:58;99166.69;;;28.56;35.88
47280;BME280;34064;44.942;0.008;2022-07-06T09:25:27;99159.38;;;28.69;35.16
47280;BME280;34064;44.942;0.008;2022-07-06T09:27:54;99145.31;;;28.72;35.36
47280;BME280;34064;44.942;0.008;2022-07-06T09:30:23;99156.31;;;28.84;35.60
47280;BME280;34064;44.942;0.008;2022-07-06T09:32:57;99141.91;;;29.07;35.31
47280;BME280;34064;44.942;0.008;2022-07-06T09:35:35;99140.09;;;29.19;35.17
47280;BME280;34064;44.942;0.008;2022-07-06T09:38:03;99138.84;;;29.34;34.96
47280;BME280;34064;44.942;0.008;2022-07-06T09:40:32;99140.34;;;29.48;34.70
47280;BME280;34064;44.942;0.008;2022-07-06T09:45:35;99122.78;;;29.80;33.43
47280;BME280;34064;44.942;0.008;2022-07-06T09:48:22;99124.72;;;29.91;33.00
47280;BME280;34064;44.942;0.008;2022-07-06T09:50:59;99117.00;;;30.00;32.99
47280;BME280;34064;44.942;0.008;2022-07-06T09:53:28;99110.44;;;30.01;33.33
47280;BME280;34064;44.942;0.008;2022-07-06T09:55:56;99114.63;;;30.15;32.35
47280;BME280;34064;44.942;0.008;2022-07-06T09:58:24;99096.63;;;30.31;32.84
47280;BME280;34064;44.942;0.008;2022-07-06T10:00:51;99101.25;;;30.43;31.66
47280;BME280;34064;44.942;0.008;2022-07-06T10:03:19;99101.72;;;30.52;31.16
47280;BME280;34064;44.942;0.008;2022-07-06T10:05:47;99101.28;;;30.55;30.75
47280;BME280;34064;44.942;0.008;2022-07-06T10:08:16;99096.00;;;30.65;31.13
47280;BME280;34064;44.942;0.008;2022-07-06T10:10:43;99093.31;;;30.82;30.01
47280;BME280;34064;44.942;0.008;2022-07-06T10:13:11;99094.72;;;30.85;29.71
47280;BME280;34064;44.942;0.008;2022-07-06T10:15:39;99084.13;;;30.88;29.94
47280;BME280;34064;44.942;0.008;2022-07-06T10:18:09;99085.63;;;30.96;29.17
47280;BME280;34064;44.942;0.008;2022-07-06T10:20:37;99085.16;;;30.99;28.84
47280;BME280;34064;44.942;0.008;2022-07-06T10:23:05;99087.16;;;31.04;28.63
47280;BME280;34064;44.942;0.008;2022-07-06T10:25:33;99070.06;;;31.14;28.78
47280;BME280;34064;44.942;0.008;2022-07-06T10:28:00;99076.75;;;31.18;27.91
47280;BME280;34064;44.942;0.008;2022-07-06T10:30:28;99076.81;;;31.23;28.72
47280;BME280;34064;44.942;0.008;2022-07-06T10:32:57;99070.97;;;31.31;29.03
47280;BME280;34064;44.942;0.008;2022-07-06T10:35:24;99068.47;;;31.47;28.60
47280;BME280;34064;44.942;0.008;2022-07-06T10:38:07;99066.97;;;31.56;28.22
47280;BME280;34064;44.942;0.008;2022-07-06T10:40:41;99066.13;;;31.55;27.95
47280;BME280;34064;44.942;0.008;2022-07-06T10:43:32;99064.41;;;31.66;27.90
47280;BME280;34064;44.942;0.008;2022-07-06T10:46:05;99065.00;;;31.68;27.55
47280;BME280;34064;44.942;0.008;2022-07-06T10:48:36;99058.41;;;31.69;27.16
47280;BME280;34064;44.942;0.008;2022-07-06T10:51:02;99057.44;;;31.76;27.36
47280;BME280;34064;44.942;0.008;2022-07-06T10:53:35;99051.84;;;31.87;26.96
47280;BME280;34064;44.942;0.008;2022-07-06T10:56:07;99055.59;;;31.81;26.67
47280;BME280;34064;44.942;0.008;2022-07-06T10:58:47;99058.03;;;31.78;26.42
47280;BME280;34064;44.942;0.008;2022-07-06T11:01:18;99052.00;;;31.81;27.21
47280;BME280;34064;44.942;0.008;2022-07-06T11:03:50;99031.50;;;32.05;26.57
47280;BME280;34064;44.942;0.008;2022-07-06T11:06:33;99027.56;;;32.18;27.07
47280;BME280;34064;44.942;0.008;2022-07-06T11:09:01;99025.28;;;32.32;26.15
47280;BME280;34064;44.942;0.008;2022-07-06T11:14:10;99010.25;;;32.62;25.39
47280;BME280;34064;44.942;0.008;2022-07-06T11:16:40;99009.66;;;32.60;25.99
47280;BME280;34064;44.942;0.008;2022-07-06T11:19:13;99003.38;;;32.87;24.84
47280;BME280;34064;44.942;0.008;2022-07-06T11:21:50;98993.75;;;32.85;24.40
47280;BME280;34064;44.942;0.008;2022-07-06T11:24:22;98999.53;;;32.88;25.79
47280;BME280;34064;44.942;0.008;2022-07-06T11:26:51;99002.97;;;33.01;24.70
47280;BME280;34064;44.942;0.008;2022-07-06T11:29:19;98989.53;;;33.04;24.67
47280;BME280;34064;44.942;0.008;2022-07-06T11:31:51;98998.34;;;33.06;24.39
47280;BME280;34064;44.942;0.008;2022-07-06T11:36:49;98999.19;;;33.12;24.69
47280;BME280;34064;44.942;0.008;2022-07-06T11:39:15;98993.25;;;33.20;24.33
47280;BME280;34064;44.942;0.008;2022-07-06T11:41:42;98997.16;;;33.29;23.83
47280;BME280;34064;44.942;0.008;2022-07-06T11:44:08;99002.91;;;33.28;23.52
47280;BME280;34064;44.942;0.008;2022-07-06T11:46:35;98997.13;;;33.24;23.50
47280;BME280;34064;44.942;0.008;2022-07-06T11:49:05;99005.09;;;33.26;24.29
47280;BME280;34064;44.942;0.008;2022-07-06T11:51:39;99004.06;;;33.32;23.82
47280;BME280;34064;44.942;0.008;2022-07-06T11:54:11;99003.13;;;33.49;24.34
47280;BME280;34064;44.942;0.008;2022-07-06T11:56:48;99001.81;;;33.56;23.72
47280;BME280;34064;44.942;0.008;2022-07-06T11:59:15;98994.34;;;33.57;23.84
47280;BME280;34064;44.942;0.008;2022-07-06T12:01:42;98988.06;;;33.62;23.77
47280;BME280;34064;44.942;0.008;2022-07-06T12:04:10;98989.75;;;33.68;23.76
47280;BME280;34064;44.942;0.008;2022-07-06T12:06:37;98979.06;;;33.71;23.65
47280;BME280;34064;44.942;0.008;2022-07-06T12:09:04;98978.56;;;33.85;23.54
47280;BME280;34064;44.942;0.008;2022-07-06T12:11:35;98975.59;;;33.86;24.38
47280;BME280;34064;44.942;0.008;2022-07-06T12:14:12;98971.75;;;33.98;23.88
47280;BME280;34064;44.942;0.008;2022-07-06T12:16:39;98981.44;;;34.00;23.39
47280;BME280;34064;44.942;0.008;2022-07-06T12:19:06;98980.06;;;34.03;23.38
47280;BME280;34064;44.942;0.008;2022-07-06T12:21:34;98976.78;;;34.11;23.41
47280;BME280;34064;44.942;0.008;2022-07-06T12:24:05;98968.56;;;34.27;23.40
47280;BME280;34064;44.942;0.008;2022-07-06T12:26:39;98962.00;;;34.33;22.69
47280;BME280;34064;44.942;0.008;2022-07-06T12:29:08;98962.53;;;34.35;23.46
47280;BME280;34064;44.942;0.008;2022-07-06T12:31:43;98953.50;;;34.50;23.11
47280;BME280;34064;44.942;0.008;2022-07-06T12:34:15;98940.84;;;34.54;22.63
47280;BME280;34064;44.942;0.008;2022-07-06T12:36:56;98945.53;;;34.53;22.72
47280;BME280;34064;44.942;0.008;2022-07-06T12:39:24;98942.25;;;34.51;23.06
47280;BME280;34064;44.942;0.008;2022-07-06T12:44:20;98946.13;;;34.61;21.91
47280;BME280;34064;44.942;0.008;2022-07-06T12:46:48;98942.81;;;34.69;22.34
47280;BME280;34064;44.942;0.008;2022-07-06T12:49:22;98944.75;;;34.74;21.97
47280;BME280;34064;44.942;0.008;2022-07-06T12:51:54;98943.38;;;34.76;22.54
47280;BME280;34064;44.942;0.008;2022-07-06T12:54:22;98936.78;;;34.93;22.66
47280;BME280;34064;44.942;0.008;2022-07-06T12:57:25;98927.41;;;34.99;22.57
47280;BME280;34064;44.942;0.008;2022-07-06T12:59:56;98938.44;;;35.04;22.07
47280;BME280;34064;44.942;0.008;2022-07-06T13:02:24;98933.47;;;35.17;21.06
47280;BME280;34064;44.942;0.008;2022-07-06T13:05:09;98943.94;;;35.20;20.99
47280;BME280;34064;44.942;0.008;2022-07-06T13:07:37;98943.41;;;35.28;20.73
47280;BME280;34064;44.942;0.008;2022-07-06T13:10:09;98941.19;;;35.30;21.27
47280;BME280;34064;44.942;0.008;2022-07-06T13:12:38;98949.47;;;35.35;21.34
47280;BME280;34064;44.942;0.008;2022-07-06T13:15:06;98948.91;;;35.33;21.38
47280;BME280;34064;44.942;0.008;2022-07-06T13:17:34;98938.97;;;35.32;20.95